createdAt,value
2023-02-09T00:00:38.868Z,7.97
2023-02-09T00:03:07.305Z,10.20
2023-02-09T00:05:35.738Z,7.07
2023-02-09T00:08:04.177Z,7.17
2023-02-09T00:10:33.959Z,10.13
2023-02-09T00:13:20.171Z,9.17
2023-02-09T00:15:50.088Z,8.67
2023-02-09T00:18:18.616Z,8.60
2023-02-09T00:20:47.180Z,7.60
2023-02-09T00:23:15.691Z,8.83
2023-02-09T00:25:45.456Z,10.80
2023-02-09T00:28:14.131Z,10.40
2023-02-09T00:30:42.683Z,8.43
2023-02-09T00:33:11.190Z,8.20
2023-02-09T00:35:41.557Z,10.37
2023-02-09T00:38:10.050Z,9.97
2023-02-09T00:40:38.488Z,8.30
2023-02-09T00:43:08.840Z,7.80
2023-02-09T00:45:37.479Z,9.00
2023-02-09T00:48:05.942Z,9.43
2023-02-09T00:50:34.376Z,9.63
2023-02-09T00:53:02.890Z,10.20
2023-02-09T00:55:31.296Z,11.33
2023-02-09T00:57:59.810Z,8.93
2023-02-09T01:00:29.630Z,10.27
2023-02-09T01:02:58.123Z,8.43
2023-02-09T01:05:26.536Z,9.50
2023-02-09T01:07:54.959Z,10.03
2023-02-09T01:10:23.438Z,12.67
2023-02-09T01:12:51.898Z,12.50
2023-02-09T01:15:20.387Z,10.47
2023-02-09T01:17:50.195Z,11.03
2023-02-09T01:20:18.741Z,9.20
2023-02-09T01:22:47.231Z,13.53
2023-02-09T01:25:18.652Z,12.13
2023-02-09T01:27:47.103Z,9.80
2023-02-09T01:30:15.910Z,11.33
2023-02-09T01:32:44.366Z,10.77
2023-02-09T01:35:14.307Z,9.10
2023-02-09T01:37:42.738Z,11.23
2023-02-09T01:40:12.197Z,8.63
2023-02-09T01:42:40.965Z,10.27
2023-02-09T01:45:26.911Z,9.53
2023-02-09T01:47:58.357Z,11.20
2023-02-09T01:50:29.063Z,10.57
2023-02-09T01:52:57.588Z,9.93
2023-02-09T01:55:27.520Z,11.23
2023-02-09T01:57:57.920Z,11.17
2023-02-09T02:00:26.657Z,12.97
2023-02-09T02:02:56.993Z,9.87
2023-02-09T02:05:26.541Z,11.73
2023-02-09T02:07:58.508Z,9.53
2023-02-09T02:10:27.116Z,15.00
2023-02-09T02:12:56.089Z,10.97
2023-02-09T02:15:26.412Z,11.03
2023-02-09T02:18:07.908Z,12.33
2023-02-09T02:20:51.166Z,12.57
2023-02-09T02:23:27.203Z,10.33
2023-02-09T02:26:12.073Z,11.10
2023-02-09T02:28:46.924Z,11.10
2023-02-09T02:31:22.318Z,11.73
2023-02-09T02:33:57.994Z,12.70
2023-02-09T02:36:29.889Z,10.67
2023-02-09T02:39:02.940Z,9.80
2023-02-09T02:41:53.779Z,10.97
2023-02-09T02:44:22.232Z,15.60
2023-02-09T02:46:52.367Z,12.57
2023-02-09T02:49:24.729Z,12.70
2023-02-09T02:51:55.679Z,15.33
2023-02-09T02:54:27.909Z,12.93
2023-02-09T02:56:58.382Z,14.17
2023-02-09T02:59:31.810Z,14.00
2023-02-09T03:02:02.486Z,11.43
2023-02-09T03:04:33.187Z,14.13
2023-02-09T03:07:01.774Z,15.43
2023-02-09T03:09:30.390Z,11.67
2023-02-09T03:12:00.518Z,12.17
2023-02-09T03:14:35.351Z,14.57
2023-02-09T03:17:09.643Z,12.77
2023-02-09T03:19:42.906Z,11.80
2023-02-09T03:22:16.955Z,13.37
2023-02-09T03:24:48.256Z,12.57
2023-02-09T03:27:18.583Z,15.33
2023-02-09T03:29:47.942Z,13.07
2023-02-09T03:32:17.072Z,15.50
2023-02-09T03:34:47.347Z,14.63
2023-02-09T03:37:15.846Z,14.20
2023-02-09T03:39:44.304Z,14.37
2023-02-09T03:42:12.775Z,12.40
2023-02-09T03:44:41.231Z,12.67
2023-02-09T03:47:10.942Z,13.20
2023-02-09T03:49:40.401Z,13.27
2023-02-09T03:52:11.748Z,13.30
2023-02-09T03:54:40.170Z,14.87
2023-02-09T03:57:09.252Z,16.13
2023-02-09T03:59:39.685Z,14.03
2023-02-09T04:02:08.787Z,12.90
2023-02-09T04:04:37.508Z,15.10
2023-02-09T04:07:06.299Z,13.53
2023-02-09T04:09:37.518Z,16.83
2023-02-09T04:12:06.001Z,12.43
2023-02-09T04:14:34.408Z,14.27
2023-02-09T04:17:02.827Z,13.50
2023-02-09T04:19:31.349Z,14.07
2023-02-09T04:22:00.961Z,17.00
2023-02-09T04:24:29.468Z,16.00
2023-02-09T04:26:59.309Z,15.47
2023-02-09T04:29:27.770Z,13.87
2023-02-09T04:31:56.248Z,14.23
2023-02-09T04:34:25.102Z,14.37
2023-02-09T04:36:53.548Z,15.80
2023-02-09T04:39:21.941Z,18.70
2023-02-09T04:41:50.375Z,20.03
2023-02-09T04:44:20.156Z,12.57
2023-02-09T04:46:48.597Z,17.57
2023-02-09T04:49:17.011Z,18.10
2023-02-09T04:51:45.440Z,16.87
2023-02-09T04:54:13.838Z,15.43
2023-02-09T04:56:42.270Z,15.93
2023-02-09T04:59:29.237Z,13.27
2023-02-09T05:01:59.073Z,17.60
2023-02-09T05:04:27.490Z,14.03
2023-02-09T05:06:55.929Z,19.03
2023-02-09T05:09:24.428Z,15.77
2023-02-09T05:11:52.870Z,12.97
2023-02-09T05:14:21.324Z,15.43
2023-02-09T05:16:49.816Z,14.93
2023-02-09T05:19:19.666Z,15.47
2023-02-09T05:21:48.204Z,14.97
2023-02-09T05:24:16.624Z,13.37
2023-02-09T05:26:45.097Z,15.50
2023-02-09T05:29:13.518Z,16.90
2023-02-09T05:31:42.052Z,16.43
2023-02-09T05:34:10.710Z,15.90
2023-02-09T05:36:40.572Z,13.60
2023-02-09T05:39:08.994Z,14.57
2023-02-09T05:41:55.227Z,16.13
2023-02-09T05:44:23.658Z,16.73
2023-02-09T05:46:52.153Z,16.17
2023-02-09T05:49:20.692Z,15.87
2023-02-09T05:51:50.509Z,16.87
2023-02-09T05:54:19.030Z,17.43
2023-02-09T05:56:47.592Z,15.90
2023-02-09T05:59:16.190Z,17.50
2023-02-09T06:01:44.944Z,16.93
2023-02-09T06:04:14.273Z,19.13
2023-02-09T06:06:43.130Z,16.87
2023-02-09T06:09:13.318Z,18.93
2023-02-09T06:11:42.046Z,19.17
2023-02-09T06:14:10.715Z,15.17
2023-02-09T06:16:40.819Z,17.90
2023-02-09T06:19:09.513Z,18.40
2023-02-09T06:21:38.041Z,15.73
2023-02-09T06:24:06.781Z,18.73
2023-02-09T06:26:36.569Z,20.13
2023-02-09T06:29:05.512Z,17.20
2023-02-09T06:31:34.179Z,17.33
2023-02-09T06:34:02.696Z,15.53
2023-02-09T06:36:31.142Z,17.13
2023-02-09T06:38:59.567Z,17.67
2023-02-09T06:41:28.296Z,17.77
2023-02-09T06:43:58.117Z,18.17
2023-02-09T06:46:26.782Z,19.93
2023-02-09T06:48:55.568Z,14.93
2023-02-09T06:51:24.196Z,17.73
2023-02-09T06:53:52.818Z,16.87
2023-02-09T06:56:21.425Z,18.20
2023-02-09T06:58:49.860Z,17.10
2023-02-09T07:01:19.744Z,17.10
2023-02-09T07:03:48.191Z,20.30
2023-02-09T07:06:17.834Z,19.60
2023-02-09T07:08:46.815Z,16.93
2023-02-09T07:11:16.483Z,15.87
2023-02-09T07:13:45.880Z,18.80
2023-02-09T07:16:14.731Z,18.47
2023-02-09T07:18:44.623Z,17.97
2023-02-09T07:21:15.736Z,14.90
2023-02-09T07:23:44.210Z,14.03
2023-02-09T07:26:15.234Z,18.53
2023-02-09T07:28:43.942Z,14.80
2023-02-09T07:31:13.379Z,24.70
2023-02-09T07:33:41.918Z,19.13
2023-02-09T07:36:12.452Z,17.73
2023-02-09T07:38:41.335Z,18.97
2023-02-09T07:41:13.246Z,18.43
2023-02-09T07:43:42.168Z,17.63
2023-02-09T07:46:11.045Z,21.60
2023-02-09T07:48:39.489Z,17.57
2023-02-09T07:51:07.972Z,18.17
2023-02-09T07:53:37.800Z,18.70
2023-02-09T07:56:07.022Z,17.60
2023-02-09T07:58:35.460Z,20.37
2023-02-09T08:01:05.527Z,17.90
2023-02-09T08:03:34.380Z,16.80
2023-02-09T08:06:04.717Z,17.70
2023-02-09T08:08:33.339Z,20.40
2023-02-09T08:11:04.358Z,19.70
2023-02-09T08:13:34.661Z,16.83
2023-02-09T08:16:05.299Z,17.13
2023-02-09T08:18:36.576Z,19.40
2023-02-09T08:21:06.136Z,19.80
2023-02-09T08:23:35.894Z,19.77
2023-02-09T08:26:08.614Z,17.40
2023-02-09T08:28:43.880Z,19.73
2023-02-09T08:31:13.276Z,15.10
2023-02-09T08:33:42.299Z,18.77
2023-02-09T08:36:11.734Z,17.80
2023-02-09T08:38:40.329Z,18.40
2023-02-09T08:41:11.028Z,19.73
2023-02-09T08:43:39.683Z,20.00
2023-02-09T08:46:09.011Z,18.47
2023-02-09T08:48:38.977Z,19.00
2023-02-09T08:51:07.961Z,16.07
2023-02-09T08:53:36.395Z,18.60
2023-02-09T08:56:04.890Z,19.47
2023-02-09T08:58:35.001Z,21.00
2023-02-09T09:01:03.575Z,17.77
2023-02-09T09:03:33.223Z,19.50
2023-02-09T09:06:01.988Z,18.43
2023-02-09T09:08:34.030Z,19.13
2023-02-09T09:11:02.971Z,19.37
2023-02-09T09:13:31.394Z,20.37
2023-02-09T09:16:03.726Z,17.07
2023-02-09T09:18:33.487Z,17.97
2023-02-09T09:21:02.046Z,20.70
2023-02-09T09:23:30.509Z,19.87
2023-02-09T09:26:02.163Z,25.97
2023-02-09T09:28:30.636Z,18.13
2023-02-09T09:30:59.922Z,20.20
2023-02-09T09:33:29.783Z,18.53
2023-02-09T09:36:01.034Z,22.50
2023-02-09T09:38:29.499Z,19.00
2023-02-09T09:40:58.141Z,17.43
2023-02-09T09:43:29.180Z,20.33
2023-02-09T09:45:57.670Z,19.30
2023-02-09T09:48:27.181Z,21.57
2023-02-09T09:50:58.006Z,18.63
2023-02-09T09:53:28.963Z,21.17
2023-02-09T09:55:59.300Z,18.47
2023-02-09T09:58:30.143Z,18.33
2023-02-09T10:01:00.065Z,17.70
2023-02-09T10:03:28.908Z,18.53
2023-02-09T10:06:02.465Z,21.00
2023-02-09T10:08:33.357Z,20.03
2023-02-09T10:11:03.398Z,18.50
2023-02-09T10:13:34.326Z,15.90
2023-02-09T10:16:02.826Z,18.33
2023-02-09T10:18:35.944Z,17.97
2023-02-09T10:21:07.311Z,19.90
2023-02-09T10:23:39.536Z,20.08
2023-02-09T10:26:19.453Z,20.07
2023-02-09T10:28:48.905Z,20.73
2023-02-09T10:31:20.825Z,18.30
2023-02-09T10:33:51.577Z,17.73
2023-02-09T10:36:33.367Z,17.70
2023-02-09T10:39:08.235Z,21.52
2023-02-09T10:41:37.191Z,15.10
2023-02-09T10:44:08.050Z,15.80
2023-02-09T10:46:36.835Z,16.35
2023-02-09T10:49:13.413Z,17.53
2023-02-09T10:51:43.521Z,17.73
2023-02-09T10:54:22.088Z,19.97
2023-02-09T10:56:50.957Z,19.10
2023-02-09T10:59:20.349Z,17.63
2023-02-09T11:01:53.022Z,19.07
2023-02-09T11:04:22.976Z,17.63
2023-02-09T11:06:54.837Z,15.10
2023-02-09T11:09:26.343Z,17.88
2023-02-09T11:11:54.943Z,19.67
2023-02-09T11:14:23.634Z,18.27
2023-02-09T11:16:57.018Z,19.55
2023-02-09T11:19:40.374Z,16.45
2023-02-09T11:22:13.495Z,17.88
2023-02-09T11:24:46.307Z,18.58
2023-02-09T11:27:23.585Z,16.73
2023-02-09T11:29:53.801Z,18.13
2023-02-09T11:32:28.960Z,18.15
2023-02-09T11:35:12.276Z,20.05
2023-02-09T11:37:50.457Z,22.53
2023-02-09T11:40:27.097Z,17.60
2023-02-09T11:42:59.774Z,18.00
2023-02-09T11:45:31.584Z,19.55
2023-02-09T11:48:04.422Z,16.98
2023-02-09T11:50:35.316Z,15.73
2023-02-09T11:53:07.924Z,16.75
2023-02-09T11:55:39.692Z,18.55
2023-02-09T11:58:14.079Z,15.65
2023-02-09T12:00:56.030Z,18.63
2023-02-09T12:03:26.941Z,17.63
2023-02-09T12:05:55.877Z,19.35
2023-02-09T12:08:30.731Z,17.48
2023-02-09T12:11:08.289Z,18.17
2023-02-09T12:13:42.381Z,16.95
2023-02-09T12:16:15.251Z,18.33
2023-02-09T12:18:45.570Z,18.02
2023-02-09T12:21:14.222Z,18.77
2023-02-09T12:23:44.346Z,22.00
2023-02-09T12:26:36.814Z,17.52
2023-02-09T12:29:23.277Z,14.88
2023-02-09T12:32:08.026Z,16.85
2023-02-09T12:34:41.193Z,16.77
2023-02-09T12:37:27.236Z,17.17
2023-02-09T12:40:20.200Z,17.88
2023-02-09T12:43:07.548Z,17.15
2023-02-09T12:45:37.139Z,16.90
2023-02-09T12:48:13.661Z,13.77
2023-02-09T12:50:50.705Z,18.42
2023-02-09T12:53:37.078Z,18.77
2023-02-09T12:56:16.509Z,20.20
2023-02-09T12:58:56.997Z,17.85
2023-02-09T13:01:45.435Z,15.13
2023-02-09T13:04:15.747Z,18.73
2023-02-09T13:06:46.795Z,17.05
2023-02-09T13:09:19.330Z,12.68
2023-02-09T13:11:50.007Z,13.27
2023-02-09T13:14:19.707Z,14.93
2023-02-09T13:17:08.053Z,15.90
2023-02-09T13:19:48.148Z,16.23
2023-02-09T13:22:31.858Z,16.38
2023-02-09T13:25:01.435Z,16.73
2023-02-09T13:27:30.927Z,15.27
2023-02-09T13:30:01.005Z,15.80
2023-02-09T13:32:34.252Z,16.60
2023-02-09T13:35:07.525Z,14.55
2023-02-09T13:37:40.973Z,15.82
2023-02-09T13:40:15.587Z,19.20
2023-02-09T13:42:52.933Z,15.25
2023-02-09T13:45:23.278Z,18.35
2023-02-09T13:47:52.085Z,16.00
2023-02-09T13:50:22.842Z,15.45
2023-02-09T13:52:51.828Z,15.82
2023-02-09T13:55:21.945Z,18.15
2023-02-09T13:57:53.181Z,15.52
2023-02-09T14:00:27.439Z,16.80
2023-02-09T14:02:57.266Z,14.25
2023-02-09T14:05:30.160Z,12.88
2023-02-09T14:07:58.787Z,13.43
2023-02-09T14:10:28.319Z,15.05
2023-02-09T14:12:59.926Z,17.73
2023-02-09T14:15:49.337Z,14.40
2023-02-09T14:18:24.458Z,14.32
2023-02-09T14:21:05.381Z,15.50
2023-02-09T14:23:36.687Z,19.30
2023-02-09T14:26:06.281Z,15.52
2023-02-09T14:28:35.160Z,16.10
2023-02-09T14:31:03.753Z,16.00
2023-02-09T14:33:34.846Z,15.88
2023-02-09T14:36:06.222Z,14.77
2023-02-09T14:38:36.790Z,14.43
2023-02-09T14:41:19.524Z,16.95
2023-02-09T14:43:57.989Z,13.25
2023-02-09T14:46:26.517Z,13.18
2023-02-09T14:48:57.803Z,11.95
2023-02-09T14:51:28.674Z,16.10
2023-02-09T14:53:57.032Z,13.60
2023-02-09T14:56:27.557Z,13.82
2023-02-09T14:58:56.639Z,15.90
2023-02-09T15:01:25.092Z,16.77
2023-02-09T15:03:53.480Z,15.60
2023-02-09T15:06:21.850Z,13.95
2023-02-09T15:08:51.618Z,13.93
2023-02-09T15:11:45.318Z,14.68
2023-02-09T15:14:13.919Z,17.48
2023-02-09T15:16:42.310Z,16.25
2023-02-09T15:19:12.764Z,11.43
2023-02-09T15:21:41.172Z,13.75
2023-02-09T15:24:10.916Z,12.02
2023-02-09T15:26:39.563Z,14.13
2023-02-09T15:29:11.311Z,12.82
2023-02-09T15:31:39.700Z,15.18
2023-02-09T15:34:08.405Z,14.35
2023-02-09T15:36:36.838Z,14.27
2023-02-09T15:39:05.796Z,16.52
2023-02-09T15:41:55.521Z,13.25
2023-02-09T15:44:41.575Z,16.35
2023-02-09T15:47:28.097Z,12.50
2023-02-09T15:49:56.489Z,14.57
2023-02-09T15:52:24.919Z,13.55
2023-02-09T15:54:54.295Z,15.80
2023-02-09T15:57:25.188Z,14.43
2023-02-09T15:59:53.812Z,13.17
2023-02-09T16:02:22.454Z,13.43
2023-02-09T16:04:50.920Z,12.43
2023-02-09T16:07:22.117Z,15.83
2023-02-09T16:09:50.567Z,12.43
2023-02-09T16:12:19.092Z,13.73
2023-02-09T16:14:53.261Z,16.10
2023-02-09T16:17:21.826Z,13.90
2023-02-09T16:19:50.205Z,14.13
2023-02-09T16:22:22.737Z,16.40
2023-02-09T16:24:51.115Z,14.33
2023-02-09T16:27:21.892Z,13.57
2023-02-09T16:29:51.659Z,14.57
2023-02-09T16:32:22.107Z,14.07
2023-02-09T16:34:50.927Z,14.67
2023-02-09T16:37:30.022Z,13.73
2023-02-09T16:39:59.093Z,16.60
2023-02-09T16:42:29.361Z,16.33
2023-02-09T16:45:00.195Z,15.80
2023-02-09T16:47:29.442Z,18.60
2023-02-09T16:49:59.742Z,17.45
2023-02-09T16:52:30.304Z,14.70
2023-02-09T16:54:59.969Z,14.53
2023-02-09T16:57:29.259Z,14.82
2023-02-09T16:59:58.994Z,17.47
2023-02-09T17:02:31.397Z,15.87
2023-02-09T17:05:00.256Z,15.05
2023-02-09T17:07:31.340Z,16.83
2023-02-09T17:10:00.002Z,17.70
2023-02-09T17:12:28.633Z,12.63
2023-02-09T17:14:57.005Z,14.83
2023-02-09T17:17:26.815Z,17.77
2023-02-09T17:19:55.973Z,19.07
2023-02-09T17:22:24.380Z,18.43
2023-02-09T17:24:52.744Z,16.80
2023-02-09T17:27:21.171Z,15.80
2023-02-09T17:29:49.635Z,18.83
2023-02-09T17:32:19.248Z,23.20
2023-02-09T17:34:49.032Z,18.38
2023-02-09T17:37:17.392Z,19.17
2023-02-09T17:39:45.828Z,20.40
2023-02-09T17:42:20.704Z,16.33
2023-02-09T17:44:49.170Z,20.07
2023-02-09T17:47:18.065Z,16.53
2023-02-09T17:49:47.300Z,18.50
2023-02-09T17:52:18.931Z,19.33
2023-02-09T17:54:47.662Z,17.17
2023-02-09T17:57:16.381Z,15.03
2023-02-09T17:59:46.111Z,18.27
2023-02-09T18:02:15.622Z,16.00
2023-02-09T18:04:44.090Z,18.20
2023-02-09T18:07:12.789Z,22.30
2023-02-09T18:09:42.588Z,19.07
2023-02-09T18:12:16.367Z,17.50
2023-02-09T18:14:44.752Z,16.27
2023-02-09T18:17:14.459Z,18.43
2023-02-09T18:19:42.905Z,18.90
2023-02-09T18:22:13.642Z,19.93
2023-02-09T18:24:43.405Z,15.97
2023-02-09T18:27:14.190Z,17.80
2023-02-09T18:29:42.569Z,20.47
2023-02-09T18:32:13.768Z,18.97
2023-02-09T18:34:42.221Z,20.93
2023-02-09T18:37:10.577Z,20.83
2023-02-09T18:39:46.169Z,19.03
2023-02-09T18:42:16.977Z,19.43
2023-02-09T18:44:45.565Z,19.83
2023-02-09T18:47:13.974Z,19.03
2023-02-09T18:49:42.402Z,19.20
2023-02-09T18:52:10.924Z,19.70
2023-02-09T18:54:40.475Z,20.17
2023-02-09T18:57:08.844Z,22.57
2023-02-09T18:59:40.298Z,23.63
2023-02-09T19:02:10.220Z,19.67
2023-02-09T19:04:38.713Z,22.20
2023-02-09T19:07:09.624Z,20.97
2023-02-09T19:09:39.158Z,21.48
2023-02-09T19:12:07.642Z,19.70
2023-02-09T19:14:40.590Z,24.17
2023-02-09T19:17:10.781Z,23.63
2023-02-09T19:19:39.900Z,22.37
2023-02-09T19:22:08.280Z,25.10
2023-02-09T19:24:36.778Z,21.33
2023-02-09T19:27:06.855Z,24.40
2023-02-09T19:29:35.435Z,22.33
2023-02-09T19:32:06.077Z,23.40
2023-02-09T19:34:36.872Z,23.93
2023-02-09T19:37:05.662Z,21.20
2023-02-09T19:39:35.155Z,26.97
2023-02-09T19:42:03.513Z,27.63
2023-02-09T19:44:31.920Z,25.60
2023-02-09T19:47:00.312Z,26.00
2023-02-09T19:49:31.406Z,24.23
2023-02-09T19:52:00.699Z,25.07
2023-02-09T19:54:29.180Z,26.60
2023-02-09T19:56:57.566Z,26.40
2023-02-09T19:59:25.977Z,30.13
2023-02-09T20:01:54.372Z,26.13
2023-02-09T20:04:22.801Z,31.37
2023-02-09T20:06:52.520Z,25.33
2023-02-09T20:09:20.934Z,25.80
2023-02-09T20:14:22.697Z,25.67
2023-02-09T20:16:51.056Z,26.70
2023-02-09T20:19:19.492Z,26.87
2023-02-09T20:21:47.879Z,26.03
2023-02-09T20:24:17.937Z,29.50
2023-02-09T20:26:48.137Z,28.87
2023-02-09T20:29:17.026Z,27.63
2023-02-09T20:31:45.477Z,26.80
2023-02-09T20:34:14.897Z,26.83
2023-02-09T20:36:44.700Z,27.80
2023-02-09T20:39:16.073Z,28.70
2023-02-09T20:42:06.624Z,31.60
2023-02-09T20:44:52.958Z,29.87
2023-02-09T20:47:22.090Z,27.43
2023-02-09T20:49:50.594Z,32.73
2023-02-09T20:52:19.345Z,32.63
2023-02-09T20:54:47.787Z,32.37
2023-02-09T20:57:17.631Z,29.73
2023-02-09T20:59:46.130Z,28.73
2023-02-09T21:02:18.496Z,32.03
2023-02-09T21:04:46.980Z,30.13
2023-02-09T21:07:15.632Z,34.23
2023-02-09T21:09:44.211Z,32.37
2023-02-09T21:12:12.630Z,29.60
2023-02-09T21:14:45.190Z,30.43
2023-02-09T21:17:13.982Z,31.35
2023-02-09T21:19:42.686Z,32.03
2023-02-09T21:22:11.100Z,31.37
2023-02-09T21:24:39.888Z,31.67
2023-02-09T21:27:08.648Z,33.40
2023-02-09T21:29:37.468Z,33.47
2023-02-09T21:32:08.219Z,33.53
2023-02-09T21:34:36.652Z,31.43
2023-02-09T21:37:08.029Z,34.67
2023-02-09T21:39:36.398Z,32.17
2023-02-09T21:42:22.498Z,35.57
2023-02-09T21:44:50.859Z,34.67
2023-02-09T21:47:21.024Z,35.10
2023-02-09T21:49:50.703Z,33.13
2023-02-09T21:52:19.202Z,31.83
2023-02-09T21:54:47.601Z,36.07
2023-02-09T21:57:16.127Z,32.60
2023-02-09T21:59:44.581Z,32.57
2023-02-09T22:02:14.761Z,37.73
2023-02-09T22:04:44.697Z,35.80
2023-02-09T22:07:13.286Z,33.83
2023-02-09T22:09:41.912Z,32.10
2023-02-09T22:12:10.585Z,33.47
2023-02-09T22:14:39.099Z,36.40
2023-02-09T22:17:07.564Z,33.27
2023-02-09T22:19:35.982Z,35.00
2023-02-09T22:22:05.899Z,32.17
2023-02-09T22:24:34.998Z,40.60
2023-02-09T22:27:03.878Z,46.43
2023-02-09T22:29:34.537Z,40.33
2023-02-09T22:32:02.966Z,43.43
2023-02-09T22:34:31.320Z,42.07
2023-02-09T22:36:59.700Z,38.00
2023-02-09T22:39:29.419Z,40.40
2023-02-09T22:41:59.576Z,41.63
2023-02-09T22:44:30.049Z,41.27
2023-02-09T22:46:58.675Z,37.57
2023-02-09T22:49:27.113Z,37.63
2023-02-09T22:51:55.491Z,39.00
2023-02-09T22:54:23.890Z,37.43
2023-02-09T22:56:53.664Z,38.97
2023-02-09T22:59:22.032Z,42.83
2023-02-09T23:01:50.446Z,44.77
2023-02-09T23:04:18.879Z,42.10
2023-02-09T23:06:47.659Z,39.10
2023-02-09T23:09:16.258Z,42.70
2023-02-09T23:11:45.274Z,40.50
2023-02-09T23:14:14.993Z,41.17
2023-02-09T23:16:44.639Z,43.43
2023-02-09T23:19:14.243Z,44.10
2023-02-09T23:21:43.848Z,43.90
2023-02-09T23:24:12.949Z,46.30
2023-02-09T23:26:41.579Z,44.77
2023-02-09T23:29:10.823Z,42.57
2023-02-09T23:31:41.069Z,41.63
2023-02-09T23:34:09.667Z,41.73
2023-02-09T23:36:38.030Z,42.37
2023-02-09T23:39:07.447Z,42.70
2023-02-09T23:41:36.207Z,46.90
2023-02-09T23:44:04.996Z,42.03
2023-02-09T23:46:33.420Z,41.83
2023-02-09T23:49:03.213Z,42.37
2023-02-09T23:51:32.872Z,44.10
2023-02-09T23:54:01.928Z,47.13
2023-02-09T23:56:31.841Z,50.40
2023-02-09T23:59:00.364Z,47.53
